Time,TemperatureF,DewpointF,PressureIn,WindDirection,WindDirectionDegrees,WindSpeedMPH,WindSpeedGustMPH,Humidity,HourlyPrecipIn,Conditions,Clouds,dailyrainin,SoftwareType,DateUTC
2013-06-21 00:05:00,69.6,54.6,29.98,SSE,149,0.0,6.0,59,0.00,,,0.00,Wunderground v.1.13,2013-06-21 05:05:00,
2013-06-21 00:15:00,69.4,54.9,29.98,SE,128,0.0,6.0,60,0.00,,,0.00,Wunderground v.1.13,2013-06-21 05:15:00,
2013-06-21 00:20:00,69.4,54.4,29.98,SE,136,0.0,6.0,59,0.00,,,0.00,Wunderground v.1.13,2013-06-21 05:20:00,
2013-06-21 00:30:00,69.6,54.6,29.98,ESE,119,0.0,6.0,59,0.00,,,0.00,Wunderground v.1.13,2013-06-21 05:30:00,
2013-06-21 00:40:00,69.6,54.6,29.98,SSE,157,0.0,7.0,59,0.00,,,0.00,Wunderground v.1.13,2013-06-21 05:40:00,
2013-06-21 00:45:00,69.6,54.6,29.98,SSE,166,0.0,7.0,59,0.00,,,0.00,Wunderground v.1.13,2013-06-21 05:45:00,
2013-06-21 00:55:00,69.4,54.9,29.98,SSE,151,0.0,7.0,60,0.00,,,0.00,Wunderground v.1.13,2013-06-21 05:55:00,
2013-06-21 01:05:00,69.3,54.8,29.97,SSE,164,0.0,6.0,60,0.00,,,0.00,Wunderground v.1.13,2013-06-21 06:05:00,
2013-06-21 01:15:00,69.3,55.3,29.97,ESE,109,0.0,6.0,61,0.00,,,0.00,Wunderground v.1.13,2013-06-21 06:15:00,
2013-06-21 01:20:00,69.1,55.1,29.97,SE,142,0.0,6.0,61,0.00,,,0.00,Wunderground v.1.13,2013-06-21 06:20:00,
2013-06-21 01:25:00,69.1,55.5,29.97,ESE,109,0.0,6.0,62,0.00,,,0.00,Wunderground v.1.13,2013-06-21 06:25:00,
2013-06-21 01:30:00,69.1,56.0,29.97,ESE,111,0.0,6.0,63,0.00,,,0.00,Wunderground v.1.13,2013-06-21 06:30:00,
2013-06-21 01:40:00,68.9,56.2,29.97,SE,132,0.0,9.0,64,0.00,,,0.00,Wunderground v.1.13,2013-06-21 06:40:00,
2013-06-21 01:45:00,68.8,56.6,29.96,SE,145,0.0,9.0,65,0.00,,,0.00,Wunderground v.1.13,2013-06-21 06:45:00,
2013-06-21 01:50:00,68.8,56.6,29.96,SSE,150,0.0,9.0,65,0.00,,,0.00,Wunderground v.1.13,2013-06-21 06:50:00,
2013-06-21 02:00:00,68.6,56.8,29.96,SE,146,0.0,9.0,66,0.00,,,0.00,Wunderground v.1.13,2013-06-21 07:00:00,
2013-06-21 02:05:00,68.4,57.0,29.96,SE,143,0.0,7.0,67,0.00,,,0.00,Wunderground v.1.13,2013-06-21 07:05:00,
2013-06-21 02:15:00,68.3,57.3,29.96,ESE,103,0.0,7.0,68,0.00,,,0.00,Wunderground v.1.13,2013-06-21 07:15:00,
2013-06-21 02:25:00,68.1,57.5,29.96,ESE,107,0.0,7.0,69,0.00,,,0.00,Wunderground v.1.13,2013-06-21 07:25:00,
2013-06-21 02:35:00,67.9,57.4,29.95,SE,141,0.0,5.0,69,0.00,,,0.00,Wunderground v.1.13,2013-06-21 07:35:00,
2013-06-21 02:45:00,67.8,57.7,29.94,SE,132,0.0,5.0,70,0.00,,,0.00,Wunderground v.1.13,2013-06-21 07:45:00,
2013-06-21 02:50:00,67.6,57.5,29.94,SE,126,0.0,5.0,70,0.00,,,0.00,Wunderground v.1.13,2013-06-21 07:50:00,
2013-06-21 02:55:00,67.6,57.9,29.94,SE,142,0.0,5.0,71,0.00,,,0.00,Wunderground v.1.13,2013-06-21 07:55:00,
2013-06-21 03:05:00,67.4,57.7,29.93,SE,146,0.0,5.0,71,0.00,,,0.00,Wunderground v.1.13,2013-06-21 08:05:00,
2013-06-21 03:15:00,67.4,57.7,29.94,SSE,147,0.0,5.0,71,0.00,,,0.00,Wunderground v.1.13,2013-06-21 08:15:00,
2013-06-21 03:25:00,67.1,57.8,29.94,SSE,147,0.0,5.0,72,0.00,,,0.00,Wunderground v.1.13,2013-06-21 08:25:00,
2013-06-21 03:30:00,66.9,58.0,29.95,SSE,147,0.0,5.0,73,0.00,,,0.00,Wunderground v.1.13,2013-06-21 08:30:00,
2013-06-21 03:40:00,66.6,58.1,29.95,SSE,147,0.0,5.0,74,0.00,,,0.00,Wunderground v.1.13,2013-06-21 08:40:00,
2013-06-21 03:50:00,66.6,58.1,29.94,SSE,148,0.0,5.0,74,0.00,,,0.00,Wunderground v.1.13,2013-06-21 08:50:00,
2013-06-21 03:55:00,66.4,58.2,29.94,SSE,148,0.0,5.0,75,0.00,,,0.00,Wunderground v.1.13,2013-06-21 08:55:00,
2013-06-21 04:05:00,66.3,58.1,29.93,SSE,148,0.0,1.0,75,0.00,,,0.00,Wunderground v.1.13,2013-06-21 09:05:00,
2013-06-21 04:15:00,66.3,58.1,29.93,SE,143,0.0,1.0,75,0.00,,,0.00,Wunderground v.1.13,2013-06-21 09:15:00,
2013-06-21 04:25:00,66.1,58.3,29.93,SE,143,0.0,1.0,76,0.00,,,0.00,Wunderground v.1.13,2013-06-21 09:25:00,
2013-06-21 04:35:00,66.1,58.3,29.93,SE,142,0.0,2.0,76,0.00,,,0.00,Wunderground v.1.13,2013-06-21 09:35:00,
2013-06-21 04:45:00,66.3,58.5,29.95,SE,143,0.0,2.0,76,0.00,,,0.00,Wunderground v.1.13,2013-06-21 09:45:00,
2013-06-21 04:50:00,66.4,58.6,29.95,SE,143,0.0,2.0,76,0.00,,,0.00,Wunderground v.1.13,2013-06-21 09:50:00,
2013-06-21 04:55:00,66.4,58.6,29.95,SE,143,0.0,2.0,76,0.00,,,0.00,Wunderground v.1.13,2013-06-21 09:55:00,
2013-06-21 05:05:00,66.6,58.8,29.95,SE,143,0.0,1.0,76,0.00,,,0.00,Wunderground v.1.13,2013-06-21 10:05:00,
2013-06-21 05:15:00,66.9,59.1,29.95,SE,143,0.0,1.0,76,0.00,,,0.00,Wunderground v.1.13,2013-06-21 10:15:00,
2013-06-21 05:20:00,66.9,59.1,29.95,SE,143,0.0,1.0,76,0.00,,,0.00,Wunderground v.1.13,2013-06-21 10:20:00,
2013-06-21 05:30:00,67.1,59.3,29.95,SE,144,0.0,1.0,76,0.00,,,0.00,Wunderground v.1.13,2013-06-21 10:30:00,
2013-06-21 05:40:00,67.6,59.8,29.95,SE,139,0.0,5.0,76,0.00,,,0.00,Wunderground v.1.13,2013-06-21 10:40:00,
2013-06-21 05:50:00,68.3,60.1,29.95,ESE,123,0.0,5.0,75,0.00,,,0.00,Wunderground v.1.13,2013-06-21 10:50:00,
2013-06-21 06:00:00,68.8,60.6,29.92,SSE,152,0.0,5.0,75,0.00,,,0.00,Wunderground v.1.13,2013-06-21 11:00:00,
2013-06-21 06:05:00,68.8,61.3,29.92,SSE,155,0.0,7.0,77,0.00,,,0.00,Wunderground v.1.13,2013-06-21 11:05:00,
2013-06-21 06:15:00,68.9,62.1,29.90,SSE,161,2.0,3.0,79,0.00,,,0.00,Wunderground v.1.13,2013-06-21 11:15:00,
2013-06-21 06:20:00,69.1,61.9,29.90,SE,128,3.0,5.0,78,0.00,,,0.00,Wunderground v.1.13,2013-06-21 11:20:00,
2013-06-21 06:30:00,69.8,62.3,29.89,SSE,166,3.0,3.0,77,0.00,,,0.00,Wunderground v.1.13,2013-06-21 11:30:00,
2013-06-21 06:40:00,70.4,62.1,29.89,SSW,207,2.0,2.0,75,0.00,,,0.00,Wunderground v.1.13,2013-06-21 11:40:00,
2013-06-21 06:50:00,70.8,62.5,29.92,South,172,1.0,9.0,75,0.00,,,0.00,Wunderground v.1.13,2013-06-21 11:50:00,
2013-06-21 07:00:00,71.1,62.4,29.90,East,99,2.0,9.0,74,0.00,,,0.00,Wunderground v.1.13,2013-06-21 12:00:00,
2013-06-21 07:05:00,71.5,62.8,29.90,SSE,151,2.0,12.0,74,0.00,,,0.00,Wunderground v.1.13,2013-06-21 12:05:00,
2013-06-21 07:15:00,71.8,62.7,29.91,SSE,155,1.0,12.0,73,0.00,,,0.00,Wunderground v.1.13,2013-06-21 12:15:00,
2013-06-21 07:25:00,72.1,63.0,29.91,SE,143,1.0,1.0,73,0.00,,,0.00,Wunderground v.1.13,2013-06-21 12:25:00,
2013-06-21 07:35:00,72.1,63.0,29.91,SE,142,1.0,12.0,73,0.00,,,0.00,Wunderground v.1.13,2013-06-21 12:35:00,
2013-06-21 07:45:00,72.3,63.2,29.88,SSE,162,1.0,1.0,73,0.00,,,0.00,Wunderground v.1.13,2013-06-21 12:45:00,
2013-06-21 07:50:00,72.5,63.4,29.88,SSE,149,2.0,12.0,73,0.00,,,0.00,Wunderground v.1.13,2013-06-21 12:50:00,
2013-06-21 07:55:00,72.5,63.4,29.88,SSE,149,1.0,1.0,73,0.00,,,0.00,Wunderground v.1.13,2013-06-21 12:55:00,
2013-06-21 08:00:00,72.5,63.4,29.89,ESE,117,1.0,1.0,73,0.00,,,0.00,Wunderground v.1.13,2013-06-21 13:00:00,
2013-06-21 08:05:00,72.7,63.5,29.89,SSW,197,1.0,8.0,73,0.00,,,0.00,Wunderground v.1.13,2013-06-21 13:05:00,
2013-06-21 08:15:00,73.0,63.4,29.90,South,171,1.0,1.0,72,0.00,,,0.00,Wunderground v.1.13,2013-06-21 13:15:00,
2013-06-21 08:20:00,73.0,63.4,29.90,SE,140,1.0,1.0,72,0.00,,,0.00,Wunderground v.1.13,2013-06-21 13:20:00,
2013-06-21 08:25:00,73.0,63.4,29.90,SSE,153,1.0,1.0,72,0.00,,,0.00,Wunderground v.1.13,2013-06-21 13:25:00,
2013-06-21 08:35:00,72.7,63.5,29.90,South,175,1.0,10.0,73,0.00,,,0.00,Wunderground v.1.13,2013-06-21 13:35:00,
2013-06-21 08:45:00,72.7,63.9,29.91,SE,142,1.0,1.0,74,0.00,,,0.00,Wunderground v.1.13,2013-06-21 13:45:00,
2013-06-21 08:55:00,72.7,63.9,29.91,SSE,156,1.0,1.0,74,0.00,,,0.00,Wunderground v.1.13,2013-06-21 13:55:00,
2013-06-21 09:10:00,72.5,64.1,29.92,SSE,160,1.0,10.0,75,0.00,,,0.00,Wunderground v.1.13,2013-06-21 14:10:00,
2013-06-21 09:15:00,72.5,64.5,29.93,SSE,148,1.0,10.0,76,0.00,,,0.00,Wunderground v.1.13,2013-06-21 14:15:00,
2013-06-21 09:25:00,71.8,65.3,29.93,SSE,153,1.0,1.0,80,0.00,,,0.01,Wunderground v.1.13,2013-06-21 14:25:00,
2013-06-21 09:35:00,71.1,65.3,29.92,South,173,1.0,1.0,82,0.00,,,0.01,Wunderground v.1.13,2013-06-21 14:35:00,
2013-06-21 09:40:00,70.9,65.5,29.92,SSW,194,0.0,9.0,83,0.00,,,0.01,Wunderground v.1.13,2013-06-21 14:40:00,
2013-06-21 09:50:00,70.6,65.5,29.93,West,269,0.0,9.0,84,0.00,,,0.01,Wunderground v.1.13,2013-06-21 14:50:00,
2013-06-21 09:55:00,70.4,65.7,29.93,WNW,301,6.0,9.0,85,0.00,,,0.02,Wunderground v.1.13,2013-06-21 14:55:00,
2013-06-21 10:00:00,69.8,65.8,29.99,NW,308,11.0,13.0,87,0.84,,,0.05,Wunderground v.1.13,2013-06-21 15:00:00,
2013-06-21 10:05:00,68.3,64.6,29.99,WNW,284,10.0,12.0,88,1.64,,,0.20,Wunderground v.1.13,2013-06-21 15:05:00,
2013-06-21 10:10:00,67.1,64.1,29.99,NNW,340,9.0,9.0,90,1.96,,,0.27,Wunderground v.1.13,2013-06-21 15:10:00,
2013-06-21 10:20:00,66.1,63.7,30.01,NNW,335,6.0,9.0,92,0.20,,,0.36,Wunderground v.1.13,2013-06-21 15:20:00,
2013-06-21 10:25:00,65.8,63.7,30.01,NW,313,5.0,9.0,93,0.14,,,0.37,Wunderground v.1.13,2013-06-21 15:25:00,
2013-06-21 10:35:00,65.5,63.7,30.00,North,360,5.0,26.0,94,0.14,,,0.40,Wunderground v.1.13,2013-06-21 15:35:00,
2013-06-21 10:40:00,65.3,63.5,30.00,North,355,3.0,26.0,94,0.12,,,0.40,Wunderground v.1.13,2013-06-21 15:40:00,
2013-06-21 10:50:00,65.2,63.4,30.01,NNW,346,2.0,2.0,94,0.13,,,0.42,Wunderground v.1.13,2013-06-21 15:50:00,
2013-06-21 11:00:00,65.2,63.7,29.98,NNW,348,0.0,26.0,95,0.08,,,0.43,Wunderground v.1.13,2013-06-21 16:00:00,
2013-06-21 11:05:00,65.3,63.8,29.98,NNW,348,0.0,19.0,95,0.06,,,0.44,Wunderground v.1.13,2013-06-21 16:05:00,
2013-06-21 11:15:00,65.3,63.8,29.98,NNW,348,0.0,19.0,95,0.07,,,0.45,Wunderground v.1.13,2013-06-21 16:15:00,
2013-06-21 11:25:00,65.3,63.8,29.98,SE,139,0.0,19.0,95,0.04,,,0.45,Wunderground v.1.13,2013-06-21 16:25:00,
2013-06-21 11:30:00,65.3,63.8,29.97,SE,139,0.0,19.0,95,0.04,,,0.46,Wunderground v.1.13,2013-06-21 16:30:00,
2013-06-21 11:45:00,65.5,64.3,29.98,SE,137,0.0,7.0,96,0.00,,,0.46,Wunderground v.1.13,2013-06-21 16:45:00,
2013-06-21 11:55:00,65.5,64.3,29.98,SE,144,0.0,7.0,96,0.00,,,0.47,Wunderground v.1.13,2013-06-21 16:55:00,
2013-06-21 12:05:00,65.6,64.4,29.95,SE,130,2.0,6.0,96,0.04,,,0.48,Wunderground v.1.13,2013-06-21 17:05:00,
2013-06-21 12:15:00,65.8,64.6,29.95,SE,128,0.0,5.0,96,0.04,,,0.48,Wunderground v.1.13,2013-06-21 17:15:00,
2013-06-21 12:25:00,65.8,64.6,29.95,SSE,160,1.0,9.0,96,0.00,,,0.49,Wunderground v.1.13,2013-06-21 17:25:00,
2013-06-21 12:30:00,66.0,64.8,29.92,SE,142,2.0,2.0,96,0.00,,,0.49,Wunderground v.1.13,2013-06-21 17:30:00,
2013-06-21 12:40:00,66.0,64.8,29.92,SE,144,3.0,3.0,96,0.00,,,0.49,Wunderground v.1.13,2013-06-21 17:40:00,
2013-06-21 12:50:00,66.0,64.8,29.91,SSE,154,5.0,5.0,96,0.00,,,0.50,Wunderground v.1.13,2013-06-21 17:50:00,
2013-06-21 13:00:00,66.0,64.8,29.86,SSE,167,6.0,8.0,96,0.00,,,0.50,Wunderground v.1.13,2013-06-21 18:00:00,
2013-06-21 13:05:00,66.1,64.9,29.86,SSE,147,6.0,11.0,96,0.00,,,0.50,Wunderground v.1.13,2013-06-21 18:05:00,
2013-06-21 13:10:00,66.1,64.9,29.86,SSE,164,6.0,11.0,96,0.00,,,0.50,Wunderground v.1.13,2013-06-21 18:10:00,
2013-06-21 13:15:00,66.0,64.8,29.79,East,99,6.0,11.0,96,0.00,,,0.50,Wunderground v.1.13,2013-06-21 18:15:00,
2013-06-21 13:20:00,66.0,64.8,29.79,SSE,157,6.0,11.0,96,0.00,,,0.50,Wunderground v.1.13,2013-06-21 18:20:00,
2013-06-21 13:25:00,66.1,64.9,29.79,South,175,6.0,6.0,96,0.00,,,0.50,Wunderground v.1.13,2013-06-21 18:25:00,
2013-06-21 13:30:00,66.3,65.1,29.78,SSE,148,5.0,5.0,96,0.00,,,0.50,Wunderground v.1.13,2013-06-21 18:30:00,
2013-06-21 13:40:00,66.8,65.0,29.78,SSE,163,3.0,20.0,94,0.00,,,0.50,Wunderground v.1.13,2013-06-21 18:40:00,
2013-06-21 13:50:00,67.3,64.9,29.80,SSE,151,2.0,20.0,92,0.00,,,0.50,Wunderground v.1.13,2013-06-21 18:50:00,
2013-06-21 13:55:00,67.8,65.1,29.80,SSE,151,1.0,1.0,91,0.00,,,0.50,Wunderground v.1.13,2013-06-21 18:55:00,
2013-06-21 14:05:00,68.6,64.6,29.82,SSE,164,4.0,20.0,87,0.00,,,0.50,Wunderground v.1.13,2013-06-21 19:05:00,
2013-06-21 14:15:00,69.6,65.2,29.82,SE,131,3.0,3.0,86,0.00,,,0.50,Wunderground v.1.13,2013-06-21 19:15:00,
2013-06-21 14:25:00,70.3,65.2,29.82,South,171,2.0,20.0,84,0.00,,,0.50,Wunderground v.1.13,2013-06-21 19:25:00,
2013-06-21 14:30:00,70.8,65.4,29.85,South,171,3.0,3.0,83,0.00,,,0.50,Wunderground v.1.13,2013-06-21 19:30:00,
2013-06-21 14:35:00,70.9,65.5,29.85,SSE,167,2.0,2.0,83,0.00,,,0.50,Wunderground v.1.13,2013-06-21 19:35:00,
2013-06-21 14:40:00,71.5,65.7,29.85,South,173,1.0,14.0,82,0.00,,,0.50,Wunderground v.1.13,2013-06-21 19:40:00,
2013-06-21 14:45:00,71.8,65.7,29.86,South,172,2.0,14.0,81,0.00,,,0.50,Wunderground v.1.13,2013-06-21 19:45:00,
2013-06-21 14:50:00,72.1,65.6,29.86,SSE,159,2.0,2.0,80,0.00,,,0.50,Wunderground v.1.13,2013-06-21 19:50:00,
2013-06-21 15:00:00,73.2,65.9,29.85,SSE,150,1.0,1.0,78,0.00,,,0.50,Wunderground v.1.13,2013-06-21 20:00:00,
2013-06-21 15:05:00,73.7,66.8,29.85,South,187,1.0,1.0,79,0.00,,,0.50,Wunderground v.1.13,2013-06-21 20:05:00,
2013-06-21 15:15:00,74.4,66.0,29.86,South,188,1.0,1.0,75,0.00,,,0.50,Wunderground v.1.13,2013-06-21 20:15:00,
2013-06-21 15:20:00,74.7,65.9,29.86,South,190,1.0,1.0,74,0.00,,,0.50,Wunderground v.1.13,2013-06-21 20:20:00,
2013-06-21 15:25:00,74.7,65.5,29.86,South,190,1.0,1.0,73,0.00,,,0.50,Wunderground v.1.13,2013-06-21 20:25:00,
2013-06-21 15:30:00,74.7,65.9,29.86,South,190,1.0,11.0,74,0.00,,,0.50,Wunderground v.1.13,2013-06-21 20:30:00,
2013-06-21 15:40:00,74.9,65.7,29.86,South,179,1.0,1.0,73,0.00,,,0.50,Wunderground v.1.13,2013-06-21 20:40:00,
2013-06-21 15:45:00,74.7,65.1,29.86,SSW,201,1.0,1.0,72,0.00,,,0.50,Wunderground v.1.13,2013-06-21 20:45:00,
2013-06-21 15:50:00,74.7,65.5,29.86,South,188,1.0,1.0,73,0.00,,,0.50,Wunderground v.1.13,2013-06-21 20:50:00,
2013-06-21 16:00:00,74.7,65.1,29.86,SSE,158,0.0,8.0,72,0.00,,,0.50,Wunderground v.1.13,2013-06-21 21:00:00,
2013-06-21 16:05:00,74.9,65.7,29.86,SSE,159,0.0,8.0,73,0.00,,,0.50,Wunderground v.1.13,2013-06-21 21:05:00,
2013-06-21 16:15:00,75.1,65.9,29.86,South,183,1.0,8.0,73,0.00,,,0.50,Wunderground v.1.13,2013-06-21 21:15:00,
2013-06-21 16:20:00,75.1,65.5,29.86,South,171,0.0,8.0,72,0.00,,,0.50,Wunderground v.1.13,2013-06-21 21:20:00,
2013-06-21 16:30:00,75.3,64.8,29.86,South,172,0.0,8.0,70,0.00,,,0.50,Wunderground v.1.13,2013-06-21 21:30:00,
2013-06-21 16:40:00,75.6,65.5,29.86,SSE,149,0.0,7.0,71,0.00,,,0.50,Wunderground v.1.13,2013-06-21 21:40:00,
2013-06-21 16:50:00,75.6,65.5,29.86,SSE,149,1.0,1.0,71,0.00,,,0.50,Wunderground v.1.13,2013-06-21 21:50:00,
2013-06-21 16:55:00,75.6,65.5,29.86,SE,136,1.0,1.0,71,0.00,,,0.50,Wunderground v.1.13,2013-06-21 21:55:00,
2013-06-21 17:05:00,75.8,65.7,29.87,SSE,163,0.0,5.0,71,0.00,,,0.50,Wunderground v.1.13,2013-06-21 22:05:00,
2013-06-21 17:15:00,75.8,66.1,29.88,SW,223,1.0,5.0,72,0.00,,,0.50,Wunderground v.1.13,2013-06-21 22:15:00,
2013-06-21 17:20:00,75.6,65.9,29.88,SSE,161,1.0,1.0,72,0.00,,,0.50,Wunderground v.1.13,2013-06-21 22:20:00,
2013-06-21 17:30:00,75.8,65.7,29.88,South,171,1.0,1.0,71,0.00,,,0.50,Wunderground v.1.13,2013-06-21 22:30:00,
2013-06-21 17:35:00,75.8,66.1,29.88,South,184,1.0,1.0,72,0.00,,,0.50,Wunderground v.1.13,2013-06-21 22:35:00,
2013-06-21 17:40:00,75.6,65.9,29.88,South,182,0.0,8.0,72,0.00,,,0.50,Wunderground v.1.13,2013-06-21 22:40:00,
2013-06-21 17:50:00,75.4,66.5,29.88,SSW,194,1.0,1.0,74,0.00,,,0.50,Wunderground v.1.13,2013-06-21 22:50:00,
2013-06-21 18:00:00,75.3,66.4,29.88,South,184,0.0,8.0,74,0.00,,,0.50,Wunderground v.1.13,2013-06-21 23:00:00,
2013-06-21 18:05:00,75.3,66.4,29.88,South,184,0.0,8.0,74,0.00,,,0.50,Wunderground v.1.13,2013-06-21 23:05:00,
2013-06-21 18:15:00,75.3,66.8,29.88,South,188,0.0,8.0,75,0.00,,,0.50,Wunderground v.1.13,2013-06-21 23:15:00,
2013-06-21 18:25:00,75.4,66.9,29.88,South,188,0.0,8.0,75,0.00,,,0.50,Wunderground v.1.13,2013-06-21 23:25:00,
2013-06-21 18:35:00,75.4,66.5,29.89,South,185,1.0,1.0,74,0.00,,,0.50,Wunderground v.1.13,2013-06-21 23:35:00,
2013-06-21 18:45:00,75.6,66.7,29.89,South,185,0.0,7.0,74,0.00,,,0.50,Wunderground v.1.13,2013-06-21 23:45:00,
2013-06-21 18:55:00,75.6,66.7,29.89,South,185,0.0,7.0,74,0.00,,,0.50,Wunderground v.1.13,2013-06-21 23:55:00,
2013-06-21 19:00:00,75.4,66.5,29.89,South,185,0.0,7.0,74,0.00,,,0.50,Wunderground v.1.13,2013-06-22 00:00:00,
2013-06-21 19:05:00,75.4,67.3,29.89,South,185,0.0,8.0,76,0.00,,,0.50,Wunderground v.1.13,2013-06-22 00:05:00,
2013-06-21 19:15:00,75.4,67.3,29.89,South,185,0.0,8.0,76,0.00,,,0.50,Wunderground v.1.13,2013-06-22 00:15:00,
2013-06-21 19:20:00,75.4,67.3,29.89,South,185,0.0,8.0,76,0.00,,,0.50,Wunderground v.1.13,2013-06-22 00:20:00,
2013-06-21 19:25:00,75.3,66.8,29.89,South,185,0.0,8.0,75,0.00,,,0.50,Wunderground v.1.13,2013-06-22 00:25:00,
2013-06-21 19:30:00,75.3,66.8,29.89,South,185,0.0,8.0,75,0.00,,,0.50,Wunderground v.1.13,2013-06-22 00:30:00,
2013-06-21 19:40:00,75.1,66.6,29.89,South,185,0.0,0.0,75,0.00,,,0.50,Wunderground v.1.13,2013-06-22 00:40:00,
2013-06-21 19:50:00,74.7,66.6,29.89,South,185,0.0,0.0,76,0.00,,,0.50,Wunderground v.1.13,2013-06-22 00:50:00,
2013-06-21 20:00:00,74.6,66.5,29.90,South,185,0.0,0.0,76,0.00,,,0.50,Wunderground v.1.13,2013-06-22 01:00:00,
2013-06-21 20:05:00,74.2,66.5,29.90,South,185,0.0,0.0,77,0.00,,,0.50,Wunderground v.1.13,2013-06-22 01:05:00,
2013-06-21 20:15:00,74.0,66.7,29.91,South,185,0.0,0.0,78,0.00,,,0.50,Wunderground v.1.13,2013-06-22 01:15:00,
2013-06-21 20:20:00,73.9,67.0,29.91,South,185,0.0,0.0,79,0.00,,,0.50,Wunderground v.1.13,2013-06-22 01:20:00,
2013-06-21 20:30:00,73.7,66.4,29.92,South,185,0.0,0.0,78,0.00,,,0.50,Wunderground v.1.13,2013-06-22 01:30:00,
2013-06-21 20:40:00,73.3,66.8,29.92,South,185,0.0,0.0,80,0.00,,,0.50,Wunderground v.1.13,2013-06-22 01:40:00,
2013-06-21 20:50:00,73.0,66.5,29.93,South,185,0.0,0.0,80,0.00,,,0.50,Wunderground v.1.13,2013-06-22 01:50:00,
2013-06-21 20:55:00,73.0,66.5,29.93,South,185,0.0,0.0,80,0.00,,,0.50,Wunderground v.1.13,2013-06-22 01:55:00,
2013-06-21 21:05:00,72.7,66.5,29.92,South,185,0.0,0.0,81,0.00,,,0.50,Wunderground v.1.13,2013-06-22 02:05:00,
2013-06-21 21:15:00,72.7,66.9,29.92,South,185,0.0,0.0,82,0.00,,,0.50,Wunderground v.1.13,2013-06-22 02:15:00,
2013-06-21 21:25:00,72.5,67.0,29.92,South,185,0.0,0.0,83,0.00,,,0.50,Wunderground v.1.13,2013-06-22 02:25:00,
2013-06-21 21:35:00,72.1,67.3,29.94,South,184,0.0,0.0,85,0.00,,,0.50,Wunderground v.1.13,2013-06-22 02:35:00,
2013-06-21 21:45:00,72.0,67.6,29.94,South,184,0.0,0.0,86,0.00,,,0.50,Wunderground v.1.13,2013-06-22 02:45:00,
2013-06-21 21:50:00,72.0,67.9,29.94,South,184,0.0,0.0,87,0.00,,,0.50,Wunderground v.1.13,2013-06-22 02:50:00,
2013-06-21 21:55:00,71.8,67.7,29.94,South,184,0.0,0.0,87,0.00,,,0.50,Wunderground v.1.13,2013-06-22 02:55:00,
2013-06-21 22:05:00,71.6,67.9,29.94,South,184,0.0,0.0,88,0.00,,,0.50,Wunderground v.1.13,2013-06-22 03:05:00,
2013-06-21 22:15:00,71.6,68.2,29.94,South,184,0.0,0.0,89,0.00,,,0.51,Wunderground v.1.13,2013-06-22 03:15:00,
2013-06-21 22:25:00,71.3,68.2,29.94,South,184,0.0,0.0,90,0.00,,,0.51,Wunderground v.1.13,2013-06-22 03:25:00,
2013-06-21 22:35:00,70.9,68.1,29.93,South,184,0.0,0.0,91,0.00,,,0.51,Wunderground v.1.13,2013-06-22 03:35:00,
2013-06-21 22:40:00,70.8,68.0,29.93,South,184,0.0,0.0,91,0.00,,,0.51,Wunderground v.1.13,2013-06-22 03:40:00,
2013-06-21 22:50:00,70.8,68.4,29.95,South,184,0.0,0.0,92,0.00,,,0.51,Wunderground v.1.13,2013-06-22 03:50:00,
2013-06-21 23:00:00,70.6,68.2,29.95,South,184,0.0,0.0,92,0.00,,,0.51,Wunderground v.1.13,2013-06-22 04:00:00,
2013-06-21 23:05:00,70.6,68.2,29.95,South,184,0.0,0.0,92,0.00,,,0.51,Wunderground v.1.13,2013-06-22 04:05:00,
2013-06-21 23:10:00,70.4,68.0,29.95,South,184,0.0,0.0,92,0.00,,,0.51,Wunderground v.1.13,2013-06-22 04:10:00,
2013-06-21 23:20:00,70.3,67.9,29.95,South,184,0.0,0.0,92,0.00,,,0.51,Wunderground v.1.13,2013-06-22 04:20:00,
2013-06-21 23:30:00,69.9,67.5,29.93,South,184,0.0,0.0,92,0.00,,,0.51,Wunderground v.1.13,2013-06-22 04:30:00,
2013-06-21 23:35:00,69.8,67.4,29.93,South,184,0.0,4.0,92,0.00,,,0.51,Wunderground v.1.13,2013-06-22 04:35:00,
2013-06-21 23:45:00,69.6,67.2,29.93,South,184,0.0,4.0,92,0.00,,,0.51,Wunderground v.1.13,2013-06-22 04:45:00,
2013-06-21 23:50:00,69.6,67.2,29.93,South,184,0.0,4.0,92,0.00,,,0.51,Wunderground v.1.13,2013-06-22 04:50:00,
2013-06-21 23:55:00,69.4,67.0,29.93,South,184,0.0,4.0,92,0.00,,,0.51,Wunderground v.1.13,2013-06-22 04:55:00,